createdAt,value
2022-11-06T00:00:08.352Z,25.53
2022-11-06T00:02:59.018Z,25.51
2022-11-06T00:06:05.210Z,25.52
2022-11-06T00:08:53.733Z,25.50
2022-11-06T00:11:43.047Z,25.48
2022-11-06T00:14:31.519Z,25.47
2022-11-06T00:17:21.280Z,25.47
2022-11-06T00:20:10.741Z,25.47
2022-11-06T00:22:59.192Z,25.46
2022-11-06T00:25:47.760Z,25.45
2022-11-06T00:28:36.453Z,25.43
2022-11-06T00:31:27.864Z,25.41
2022-11-06T00:34:17.965Z,25.41
2022-11-06T00:37:06.610Z,25.43
2022-11-06T00:39:55.102Z,25.41
2022-11-06T00:42:43.616Z,25.40
2022-11-06T00:45:32.111Z,25.38
2022-11-06T00:48:20.616Z,25.39
2022-11-06T00:51:16.810Z,25.41
2022-11-06T00:54:07.607Z,25.37
2022-11-06T00:56:56.086Z,25.39
2022-11-06T00:59:44.647Z,25.39
2022-11-06T01:02:33.162Z,25.38
2022-11-06T01:05:21.934Z,25.34
2022-11-06T01:08:12.065Z,25.35
2022-11-06T01:11:00.638Z,25.51
2022-11-06T01:13:51.561Z,25.41
2022-11-06T01:16:40.590Z,25.40
2022-11-06T01:19:29.152Z,25.36
2022-11-06T01:22:17.987Z,25.37
2022-11-06T01:25:09.671Z,25.35
2022-11-06T01:27:58.126Z,25.35
2022-11-06T01:30:46.564Z,25.34
2022-11-06T01:33:35.153Z,25.33
2022-11-06T01:36:23.940Z,25.32
2022-11-06T01:39:14.556Z,25.29
2022-11-06T01:42:04.351Z,25.31
2022-11-06T01:45:17.130Z,25.31
2022-11-06T01:48:06.298Z,25.33
2022-11-06T01:50:57.292Z,25.30
2022-11-06T01:53:45.761Z,25.30
2022-11-06T01:56:34.444Z,25.30
2022-11-06T01:59:26.947Z,25.28
2022-11-06T02:02:16.830Z,25.29
2022-11-06T02:05:06.188Z,25.29
2022-11-06T02:07:55.101Z,25.28
2022-11-06T02:10:44.436Z,25.29
2022-11-06T02:13:39.334Z,25.29
2022-11-06T02:16:35.739Z,25.27
2022-11-06T02:19:41.331Z,25.28
2022-11-06T02:22:59.091Z,25.26
2022-11-06T02:25:51.700Z,25.25
2022-11-06T02:28:43.535Z,25.27
2022-11-06T02:31:33.679Z,25.27
2022-11-06T02:34:25.557Z,25.23
2022-11-06T02:37:16.350Z,25.22
2022-11-06T02:40:08.376Z,25.23
2022-11-06T02:42:57.975Z,25.23
2022-11-06T02:45:50.656Z,25.22
2022-11-06T02:48:44.538Z,25.23
2022-11-06T02:51:35.329Z,25.26
2022-11-06T02:54:24.776Z,25.23
2022-11-06T02:57:15.726Z,25.23
2022-11-06T03:00:08.988Z,25.22
2022-11-06T03:03:01.792Z,25.22
2022-11-06T03:05:54.749Z,25.23
2022-11-06T03:08:46.296Z,25.23
2022-11-06T03:11:38.940Z,25.26
2022-11-06T03:14:31.539Z,25.28
2022-11-06T03:17:22.522Z,25.26
2022-11-06T03:20:21.089Z,25.23
2022-11-06T03:23:14.608Z,25.22
2022-11-06T03:26:12.479Z,25.32
2022-11-06T03:29:04.575Z,25.31
2022-11-06T03:31:55.700Z,25.27
2022-11-06T03:34:51.443Z,25.26
2022-11-06T03:37:45.160Z,25.25
2022-11-06T03:40:36.509Z,25.25
2022-11-06T03:43:28.728Z,25.23
2022-11-06T03:46:20.865Z,25.23
2022-11-06T03:49:11.481Z,25.25
2022-11-06T03:52:01.979Z,25.22
2022-11-06T03:54:54.863Z,25.25
2022-11-06T03:57:46.156Z,25.23
2022-11-06T04:00:36.553Z,25.22
2022-11-06T04:03:27.504Z,25.23
2022-11-06T04:06:19.233Z,25.22
2022-11-06T04:09:27.895Z,25.20
2022-11-06T04:12:39.440Z,25.22
2022-11-06T04:15:28.547Z,25.22
2022-11-06T04:18:20.119Z,25.22
2022-11-06T04:21:25.797Z,25.22
2022-11-06T04:24:40.978Z,25.26
2022-11-06T04:27:40.283Z,25.22
2022-11-06T04:30:32.257Z,25.23
2022-11-06T04:33:24.457Z,25.22
2022-11-06T04:36:17.994Z,25.23
2022-11-06T04:39:10.683Z,25.24
2022-11-06T04:42:03.746Z,25.22
2022-11-06T04:44:57.118Z,25.26
2022-11-06T04:47:46.856Z,25.23
2022-11-06T04:50:38.366Z,25.22
2022-11-06T04:53:27.647Z,25.23
2022-11-06T04:56:25.671Z,25.24
2022-11-06T04:59:16.501Z,25.23
2022-11-06T05:02:07.179Z,25.21
2022-11-06T05:04:55.606Z,25.24
2022-11-06T05:07:44.151Z,25.21
2022-11-06T05:10:32.658Z,25.22
2022-11-06T05:13:21.058Z,25.21
2022-11-06T05:16:09.592Z,25.20
2022-11-06T05:18:59.442Z,25.20
2022-11-06T05:22:05.654Z,25.22
2022-11-06T05:24:54.152Z,25.21
2022-11-06T05:27:42.605Z,25.23
2022-11-06T05:30:30.991Z,25.22
2022-11-06T05:33:19.410Z,25.23
2022-11-06T05:36:10.042Z,25.22
2022-11-06T05:38:58.523Z,25.22
2022-11-06T05:41:47.092Z,25.22
2022-11-06T05:44:35.730Z,25.22
2022-11-06T05:47:24.384Z,25.22
2022-11-06T05:50:12.899Z,25.22
2022-11-06T05:53:02.879Z,25.23
2022-11-06T05:55:51.433Z,25.22
2022-11-06T05:58:39.879Z,25.23
2022-11-06T06:01:28.770Z,25.23
2022-11-06T06:04:17.485Z,25.23
2022-11-06T06:07:06.072Z,25.21
2022-11-06T06:09:55.832Z,25.19
2022-11-06T06:12:44.240Z,25.22
2022-11-06T06:15:32.977Z,25.21
2022-11-06T06:18:21.461Z,25.22
2022-11-06T06:21:09.966Z,25.23
2022-11-06T06:23:58.473Z,25.21
2022-11-06T06:26:48.333Z,25.23
2022-11-06T06:29:36.891Z,25.22
2022-11-06T06:32:25.411Z,25.20
2022-11-06T06:35:17.816Z,25.20
2022-11-06T06:38:06.361Z,25.21
2022-11-06T06:40:54.880Z,25.23
2022-11-06T06:43:44.694Z,25.23
2022-11-06T06:46:33.130Z,25.30
2022-11-06T06:49:21.672Z,25.35
2022-11-06T06:52:10.276Z,25.33
2022-11-06T06:54:58.883Z,25.35
2022-11-06T06:57:47.291Z,25.33
2022-11-06T07:00:37.221Z,25.30
2022-11-06T07:03:25.724Z,25.30
2022-11-06T07:06:14.313Z,25.28
2022-11-06T07:09:03.021Z,25.28
2022-11-06T07:11:51.676Z,25.27
2022-11-06T07:14:40.203Z,25.29
2022-11-06T07:17:30.335Z,25.30
2022-11-06T07:20:18.905Z,25.32
2022-11-06T07:23:09.216Z,25.34
2022-11-06T07:25:57.836Z,25.33
2022-11-06T07:28:46.316Z,25.33
2022-11-06T07:31:34.828Z,25.35
2022-11-06T07:34:24.800Z,25.36
2022-11-06T07:37:13.605Z,25.37
2022-11-06T07:40:02.186Z,25.38
2022-11-06T07:42:50.666Z,25.40
2022-11-06T07:45:42.831Z,25.41
2022-11-06T07:48:32.135Z,25.40
2022-11-06T07:51:21.935Z,25.41
2022-11-06T07:54:12.005Z,25.56
2022-11-06T07:57:00.485Z,25.52
2022-11-06T07:59:48.935Z,25.51
2022-11-06T08:02:37.530Z,25.50
2022-11-06T08:05:26.268Z,25.67
2022-11-06T08:08:16.392Z,25.71
2022-11-06T08:11:06.269Z,25.72
2022-11-06T08:13:54.738Z,25.94
2022-11-06T08:16:43.206Z,25.97
2022-11-06T08:19:31.967Z,26.01
2022-11-06T08:22:20.610Z,26.06
2022-11-06T08:25:11.290Z,26.26
2022-11-06T08:28:00.634Z,26.38
2022-11-06T08:30:49.166Z,26.57
2022-11-06T08:33:39.156Z,26.71
2022-11-06T08:36:27.574Z,26.80
2022-11-06T08:39:16.092Z,26.77
2022-11-06T08:42:07.077Z,26.86
2022-11-06T08:44:55.582Z,26.86
2022-11-06T08:47:43.931Z,26.86
2022-11-06T08:50:34.481Z,26.89
2022-11-06T08:53:23.058Z,26.94
2022-11-06T08:56:11.660Z,26.96
2022-11-06T08:59:01.442Z,27.08
2022-11-06T09:01:50.232Z,27.03
2022-11-06T09:04:41.487Z,27.10
2022-11-06T09:07:30.180Z,27.13
2022-11-06T09:10:18.753Z,27.18
2022-11-06T09:13:10.550Z,27.15
2022-11-06T09:16:01.377Z,27.18
2022-11-06T09:18:53.228Z,27.19
2022-11-06T09:21:41.953Z,27.24
2022-11-06T09:24:57.184Z,27.24
2022-11-06T09:27:45.421Z,27.32
2022-11-06T09:30:34.007Z,27.34
2022-11-06T09:33:24.104Z,27.38
2022-11-06T09:36:12.557Z,27.44
2022-11-06T09:39:01.119Z,27.46
2022-11-06T09:41:55.491Z,27.45
2022-11-06T09:44:53.890Z,27.52
2022-11-06T09:47:49.555Z,27.50
2022-11-06T09:50:43.902Z,27.52
2022-11-06T09:53:34.405Z,27.61
2022-11-06T09:56:25.424Z,27.61
2022-11-06T09:59:16.348Z,27.62
2022-11-06T10:02:17.581Z,27.68
2022-11-06T10:05:10.265Z,27.66
2022-11-06T10:08:01.653Z,27.45
2022-11-06T10:10:58.265Z,27.44
2022-11-06T10:13:55.639Z,27.55
2022-11-06T10:16:47.138Z,27.51
2022-11-06T10:19:45.424Z,27.54
2022-11-06T10:22:38.501Z,27.51
2022-11-06T10:25:41.673Z,27.53
2022-11-06T10:28:39.977Z,27.54
2022-11-06T10:31:33.732Z,27.60
2022-11-06T10:34:24.248Z,27.25
2022-11-06T10:37:15.211Z,27.21
2022-11-06T10:40:06.109Z,27.19
2022-11-06T10:43:01.126Z,27.47
2022-11-06T10:45:55.368Z,27.38
2022-11-06T10:48:48.642Z,27.39
2022-11-06T10:52:01.205Z,27.50
2022-11-06T10:54:58.833Z,27.57
2022-11-06T10:57:50.683Z,27.59
2022-11-06T11:00:40.795Z,27.62
2022-11-06T11:03:33.010Z,27.54
2022-11-06T11:06:21.868Z,27.69
2022-11-06T11:09:29.098Z,27.79
2022-11-06T11:12:22.968Z,27.84
2022-11-06T11:15:14.704Z,27.83
2022-11-06T11:18:18.623Z,27.84
2022-11-06T11:21:12.077Z,27.82
2022-11-06T11:24:08.397Z,27.77
2022-11-06T11:27:00.050Z,27.82
2022-11-06T11:29:50.008Z,27.84
2022-11-06T11:32:38.580Z,27.80
2022-11-06T11:35:29.879Z,27.76
2022-11-06T11:38:21.940Z,27.77
2022-11-06T11:41:13.954Z,27.68
2022-11-06T11:44:07.801Z,27.67
2022-11-06T11:46:56.809Z,27.70
2022-11-06T11:49:45.356Z,27.66
2022-11-06T11:52:35.164Z,27.71
2022-11-06T11:55:27.389Z,27.58
2022-11-06T11:58:27.948Z,27.80
2022-11-06T12:01:16.408Z,27.75
2022-11-06T12:04:11.090Z,27.75
2022-11-06T12:07:02.459Z,27.79
2022-11-06T12:09:52.538Z,27.69
2022-11-06T12:12:41.144Z,27.43
2022-11-06T12:15:31.892Z,27.60
2022-11-06T12:18:22.673Z,27.19
2022-11-06T12:21:16.131Z,26.99
2022-11-06T12:24:06.509Z,26.91
2022-11-06T12:26:59.430Z,26.71
2022-11-06T12:29:49.828Z,26.58
2022-11-06T12:32:45.815Z,26.38
2022-11-06T12:35:37.474Z,26.28
2022-11-06T12:38:30.221Z,26.19
2022-11-06T12:41:24.278Z,26.19
2022-11-06T12:44:15.266Z,26.11
2022-11-06T12:47:09.987Z,26.04
2022-11-06T12:50:29.120Z,26.09
2022-11-06T12:53:27.672Z,25.99
2022-11-06T12:56:20.403Z,25.96
2022-11-06T12:59:24.343Z,26.09
2022-11-06T13:02:24.002Z,25.95
2022-11-06T13:05:17.071Z,25.87
2022-11-06T13:08:15.883Z,25.64
2022-11-06T13:11:21.922Z,25.68
2022-11-06T13:14:20.653Z,25.59
2022-11-06T13:17:13.940Z,25.44
2022-11-06T13:20:05.650Z,25.28
2022-11-06T13:23:01.703Z,25.14
2022-11-06T13:25:54.770Z,25.07
2022-11-06T13:28:45.489Z,25.11
2022-11-06T13:31:40.440Z,25.39
2022-11-06T13:34:31.567Z,25.58
2022-11-06T13:37:21.679Z,25.75
2022-11-06T13:40:20.554Z,25.67
2022-11-06T13:43:17.038Z,25.72
2022-11-06T13:46:10.917Z,25.84
2022-11-06T13:49:10.059Z,25.94
2022-11-06T13:52:02.010Z,25.96
2022-11-06T13:55:02.169Z,26.16
2022-11-06T13:58:17.036Z,26.14
2022-11-06T14:01:14.938Z,26.06
2022-11-06T14:04:41.071Z,26.10
2022-11-06T14:07:31.078Z,26.18
2022-11-06T14:10:20.801Z,26.06
2022-11-06T14:13:09.302Z,25.99
2022-11-06T14:16:08.573Z,25.91
2022-11-06T14:18:59.230Z,26.05
2022-11-06T14:21:51.684Z,26.02
2022-11-06T14:24:41.500Z,25.86
2022-11-06T14:28:05.418Z,25.84
2022-11-06T14:34:03.279Z,25.71
2022-11-06T14:36:53.088Z,25.62
2022-11-06T14:40:04.405Z,25.58
2022-11-06T14:42:53.134Z,25.58
2022-11-06T14:45:51.809Z,25.60
2022-11-06T14:48:43.811Z,25.56
2022-11-06T14:51:32.510Z,25.55
2022-11-06T14:54:25.390Z,25.48
2022-11-06T14:57:17.530Z,25.52
2022-11-06T15:00:07.191Z,25.48
2022-11-06T15:02:56.881Z,25.47
2022-11-06T15:05:51.090Z,25.42
2022-11-06T15:09:02.515Z,25.44
2022-11-06T15:11:57.214Z,25.47
2022-11-06T15:14:59.220Z,25.44
2022-11-06T15:17:47.802Z,25.37
2022-11-06T15:20:36.365Z,25.33
2022-11-06T15:23:26.504Z,25.27
2022-11-06T15:26:23.659Z,25.31
2022-11-06T15:29:19.986Z,25.26
2022-11-06T15:32:13.043Z,25.25
2022-11-06T15:35:06.108Z,25.21
2022-11-06T15:37:56.358Z,25.22
2022-11-06T15:40:45.417Z,25.22
2022-11-06T15:43:37.443Z,25.20
2022-11-06T15:46:28.965Z,25.17
2022-11-06T15:49:19.778Z,25.13
2022-11-06T15:52:08.474Z,25.13
2022-11-06T15:54:57.082Z,25.15
2022-11-06T15:57:47.701Z,25.13
2022-11-06T16:00:37.907Z,25.13
2022-11-06T16:03:30.333Z,25.11
2022-11-06T16:06:19.234Z,25.20
2022-11-06T16:09:15.465Z,25.16
2022-11-06T16:12:04.217Z,25.12
2022-11-06T16:14:52.653Z,25.12
2022-11-06T16:17:46.051Z,25.19
2022-11-06T16:20:36.105Z,25.16
2022-11-06T16:23:37.595Z,25.25
2022-11-06T16:26:29.025Z,25.24
2022-11-06T16:29:20.811Z,25.26
2022-11-06T16:32:11.015Z,25.40
2022-11-06T16:35:00.136Z,25.42
2022-11-06T16:37:50.366Z,25.43
2022-11-06T16:40:52.587Z,25.63
2022-11-06T16:43:41.240Z,25.54
2022-11-06T16:47:11.932Z,25.52
2022-11-06T16:50:02.010Z,25.53
2022-11-06T16:52:55.282Z,25.62
2022-11-06T16:55:43.782Z,25.51
2022-11-06T16:58:33.989Z,25.44
2022-11-06T17:01:22.806Z,25.44
2022-11-06T17:04:15.391Z,25.41
2022-11-06T17:07:04.032Z,25.36
2022-11-06T17:09:55.349Z,25.35
2022-11-06T17:12:43.816Z,25.34
2022-11-06T17:15:32.386Z,25.32
2022-11-06T17:18:22.955Z,25.30
2022-11-06T17:21:14.794Z,25.37
2022-11-06T17:24:31.305Z,25.41
2022-11-06T17:27:13.308Z,25.33
2022-11-06T17:30:01.761Z,25.33
2022-11-06T17:32:50.194Z,25.36
2022-11-06T17:35:38.874Z,25.35
2022-11-06T17:38:27.390Z,25.37
2022-11-06T17:41:29.692Z,25.35
2022-11-06T17:44:20.031Z,25.38
2022-11-06T17:47:08.594Z,25.35
2022-11-06T17:49:56.952Z,25.32
2022-11-06T17:52:45.572Z,25.30
2022-11-06T17:55:34.039Z,25.34
2022-11-06T17:58:22.617Z,25.37
2022-11-06T18:01:12.654Z,25.40
2022-11-06T18:04:01.187Z,25.40
2022-11-06T18:06:50.968Z,25.33
2022-11-06T18:09:39.550Z,25.33
2022-11-06T18:12:28.864Z,25.29
2022-11-06T18:15:17.595Z,25.25
2022-11-06T18:18:07.644Z,25.21
2022-11-06T18:20:56.212Z,25.21
2022-11-06T18:23:44.716Z,25.19
2022-11-06T18:26:33.377Z,25.21
2022-11-06T18:29:22.145Z,25.18
2022-11-06T18:32:10.683Z,25.16
2022-11-06T18:35:01.116Z,25.17
2022-11-06T18:37:49.614Z,25.18
2022-11-06T18:40:39.771Z,25.17
2022-11-06T18:43:28.471Z,25.17
2022-11-06T18:46:18.785Z,25.15
2022-11-06T18:49:07.303Z,25.13
2022-11-06T18:51:57.113Z,25.15
2022-11-06T18:54:45.628Z,25.13
2022-11-06T18:57:34.178Z,25.13
2022-11-06T19:00:22.867Z,25.12
2022-11-06T19:03:11.842Z,25.12
2022-11-06T19:06:00.618Z,25.13
2022-11-06T19:08:50.623Z,25.14
2022-11-06T19:11:39.157Z,25.12
2022-11-06T19:14:27.650Z,25.11
2022-11-06T19:17:16.173Z,25.11
2022-11-06T19:20:05.613Z,25.11
2022-11-06T19:22:55.487Z,25.11
2022-11-06T19:25:47.914Z,25.13
2022-11-06T19:28:39.393Z,25.11
2022-11-06T19:31:29.450Z,25.10
2022-11-06T19:34:20.186Z,25.08
2022-11-06T19:37:08.673Z,25.06
2022-11-06T19:40:00.298Z,25.06
2022-11-06T19:42:54.551Z,25.08
2022-11-06T19:45:43.197Z,25.08
2022-11-06T19:48:32.193Z,25.05
2022-11-06T19:51:20.806Z,25.03
2022-11-06T19:54:09.598Z,25.04
2022-11-06T19:57:27.144Z,25.04
2022-11-06T20:00:11.469Z,25.06
2022-11-06T20:03:02.456Z,25.06
2022-11-06T20:05:51.289Z,25.06
2022-11-06T20:08:39.978Z,25.05
2022-11-06T20:11:28.505Z,25.09
2022-11-06T20:14:21.612Z,25.08
2022-11-06T20:17:11.448Z,25.09
2022-11-06T20:20:00.091Z,25.10
2022-11-06T20:22:49.130Z,25.09
2022-11-06T20:25:37.640Z,25.11
2022-11-06T20:28:26.318Z,25.18
2022-11-06T20:31:15.413Z,25.15
2022-11-06T20:34:05.533Z,25.14
2022-11-06T20:36:54.728Z,25.15
2022-11-06T20:39:43.252Z,25.22
2022-11-06T20:42:32.359Z,25.29
2022-11-06T20:45:20.848Z,25.32
2022-11-06T20:48:11.083Z,25.28
2022-11-06T20:51:01.661Z,25.27
2022-11-06T20:53:50.379Z,25.27
2022-11-06T20:56:38.925Z,25.28
2022-11-06T20:59:27.466Z,25.33
2022-11-06T21:02:16.334Z,25.38
2022-11-06T21:05:05.187Z,25.47
2022-11-06T21:07:55.118Z,25.44
2022-11-06T21:10:43.728Z,25.44
2022-11-06T21:13:33.272Z,25.41
2022-11-06T21:16:24.317Z,25.40
2022-11-06T21:19:12.828Z,25.42
2022-11-06T21:22:01.202Z,25.48
2022-11-06T21:24:50.926Z,25.49
2022-11-06T21:27:39.310Z,25.58
2022-11-06T21:30:27.761Z,25.55
2022-11-06T21:33:16.855Z,25.50
2022-11-06T21:36:06.618Z,25.47
2022-11-06T21:38:56.064Z,25.49
2022-11-06T21:41:46.189Z,25.50
2022-11-06T21:44:34.687Z,25.48
2022-11-06T21:47:23.101Z,25.43
2022-11-06T21:50:11.779Z,25.40
2022-11-06T21:53:17.796Z,25.43
2022-11-06T21:56:07.062Z,25.73
2022-11-06T21:58:58.684Z,25.91
2022-11-06T22:01:47.388Z,25.70
2022-11-06T22:04:35.973Z,25.69
2022-11-06T22:07:24.446Z,25.60
2022-11-06T22:10:13.002Z,25.51
2022-11-06T22:13:01.682Z,25.50
2022-11-06T22:15:51.411Z,25.51
2022-11-06T22:18:39.954Z,25.51
2022-11-06T22:21:29.976Z,25.45
2022-11-06T22:24:18.367Z,25.42
2022-11-06T22:27:06.845Z,25.44
2022-11-06T22:29:55.473Z,25.38
2022-11-06T22:32:45.440Z,25.39
2022-11-06T22:35:33.985Z,25.38
2022-11-06T22:38:22.362Z,25.40
2022-11-06T22:41:14.687Z,25.39
2022-11-06T22:44:03.380Z,25.38
2022-11-06T22:46:52.018Z,25.39
2022-11-06T22:49:41.769Z,25.38
2022-11-06T22:52:30.297Z,25.37
2022-11-06T22:55:18.983Z,25.36
2022-11-06T22:58:07.592Z,25.39
2022-11-06T23:00:57.235Z,25.35
2022-11-06T23:03:45.727Z,25.35
2022-11-06T23:06:35.854Z,25.34
2022-11-06T23:09:24.410Z,25.33
2022-11-06T23:12:13.796Z,25.33
2022-11-06T23:15:02.516Z,25.35
2022-11-06T23:17:51.122Z,25.36
2022-11-06T23:20:39.661Z,25.34
2022-11-06T23:23:29.543Z,25.35
2022-11-06T23:26:19.897Z,25.37
2022-11-06T23:29:08.866Z,25.35
2022-11-06T23:31:57.379Z,25.37
2022-11-06T23:34:45.921Z,25.37
2022-11-06T23:37:34.571Z,25.37
2022-11-06T23:40:24.413Z,25.39
2022-11-06T23:43:13.102Z,25.38
2022-11-06T23:46:00.787Z,25.38
2022-11-06T23:48:49.294Z,25.37
2022-11-06T23:51:37.806Z,25.39
2022-11-06T23:54:26.562Z,25.39
2022-11-06T23:57:16.463Z,25.76
